sensor_id;sensor_type;location;lat;lon;timestamp;temperature;humidity
20288;DHT22;10303;51.960;8.372;2023-04-06T00:02:13;6.10;60.10
20288;DHT22;10303;51.960;8.372;2023-04-06T00:04:39;6.10;60.10
20288;DHT22;10303;51.960;8.372;2023-04-06T00:07:05;6.10;60.10
20288;DHT22;10303;51.960;8.372;2023-04-06T00:09:30;6.10;60.40
20288;DHT22;10303;51.960;8.372;2023-04-06T00:11:56;6.10;60.30
20288;DHT22;10303;51.960;8.372;2023-04-06T00:14:23;6.00;60.30
20288;DHT22;10303;51.960;8.372;2023-04-06T00:16:49;6.40;60.80
20288;DHT22;10303;51.960;8.372;2023-04-06T00:19:15;6.00;60.50
20288;DHT22;10303;51.960;8.372;2023-04-06T00:21:40;6.00;60.60
20288;DHT22;10303;51.960;8.372;2023-04-06T00:24:06;5.90;60.60
20288;DHT22;10303;51.960;8.372;2023-04-06T00:26:32;5.90;60.60
20288;DHT22;10303;51.960;8.372;2023-04-06T00:28:58;5.90;60.80
20288;DHT22;10303;51.960;8.372;2023-04-06T00:31:24;5.90;60.70
20288;DHT22;10303;51.960;8.372;2023-04-06T00:33:50;5.90;61.00
20288;DHT22;10303;51.960;8.372;2023-04-06T00:36:16;5.90;61.10
20288;DHT22;10303;51.960;8.372;2023-04-06T00:38:42;5.80;61.10
20288;DHT22;10303;51.960;8.372;2023-04-06T00:41:08;5.80;61.00
20288;DHT22;10303;51.960;8.372;2023-04-06T00:43:34;5.80;62.30
20288;DHT22;10303;51.960;8.372;2023-04-06T00:46:00;5.80;62.60
20288;DHT22;10303;51.960;8.372;2023-04-06T00:48:25;5.90;62.50
20288;DHT22;10303;51.960;8.372;2023-04-06T00:50:51;5.80;62.10
20288;DHT22;10303;51.960;8.372;2023-04-06T00:53:17;6.00;62.60
20288;DHT22;10303;51.960;8.372;2023-04-06T00:55:43;5.80;62.10
20288;DHT22;10303;51.960;8.372;2023-04-06T00:58:10;5.80;62.30
20288;DHT22;10303;51.960;8.372;2023-04-06T01:00:45;5.80;62.00
20288;DHT22;10303;51.960;8.372;2023-04-06T01:03:16;5.80;61.90
20288;DHT22;10303;51.960;8.372;2023-04-06T01:05:43;5.80;62.20
20288;DHT22;10303;51.960;8.372;2023-04-06T01:08:23;5.80;62.30
20288;DHT22;10303;51.960;8.372;2023-04-06T01:10:54;5.80;62.40
20288;DHT22;10303;51.960;8.372;2023-04-06T01:13:26;5.80;62.30
20288;DHT22;10303;51.960;8.372;2023-04-06T01:16:04;5.80;62.20
20288;DHT22;10303;51.960;8.372;2023-04-06T01:18:53;5.80;62.30
20288;DHT22;10303;51.960;8.372;2023-04-06T01:21:28;5.80;62.10
20288;DHT22;10303;51.960;8.372;2023-04-06T01:24:08;5.80;62.20
20288;DHT22;10303;51.960;8.372;2023-04-06T01:26:51;5.80;62.30
20288;DHT22;10303;51.960;8.372;2023-04-06T01:29:17;5.80;62.20
20288;DHT22;10303;51.960;8.372;2023-04-06T01:31:43;5.80;62.30
20288;DHT22;10303;51.960;8.372;2023-04-06T01:34:09;5.80;62.40
20288;DHT22;10303;51.960;8.372;2023-04-06T01:36:35;5.80;62.30
20288;DHT22;10303;51.960;8.372;2023-04-06T01:39:16;5.80;62.30
20288;DHT22;10303;51.960;8.372;2023-04-06T01:41:42;5.90;62.50
20288;DHT22;10303;51.960;8.372;2023-04-06T01:44:08;5.70;62.30
20288;DHT22;10303;51.960;8.372;2023-04-06T01:46:34;5.80;62.30
20288;DHT22;10303;51.960;8.372;2023-04-06T01:49:03;5.70;62.20
20288;DHT22;10303;51.960;8.372;2023-04-06T01:51:34;5.70;62.30
20288;DHT22;10303;51.960;8.372;2023-04-06T01:54:02;5.70;62.30
20288;DHT22;10303;51.960;8.372;2023-04-06T01:56:52;5.70;62.50
20288;DHT22;10303;51.960;8.372;2023-04-06T01:59:28;5.70;62.50
20288;DHT22;10303;51.960;8.372;2023-04-06T02:01:54;5.70;62.50
20288;DHT22;10303;51.960;8.372;2023-04-06T02:04:21;5.70;62.60
20288;DHT22;10303;51.960;8.372;2023-04-06T02:06:52;5.60;62.60
20288;DHT22;10303;51.960;8.372;2023-04-06T02:09:22;5.70;62.50
20288;DHT22;10303;51.960;8.372;2023-04-06T02:11:48;5.80;62.80
20288;DHT22;10303;51.960;8.372;2023-04-06T02:14:14;5.70;63.00
20288;DHT22;10303;51.960;8.372;2023-04-06T02:16:46;5.70;62.90
20288;DHT22;10303;51.960;8.372;2023-04-06T02:19:12;5.60;62.90
20288;DHT22;10303;51.960;8.372;2023-04-06T02:21:38;5.80;62.90
20288;DHT22;10303;51.960;8.372;2023-04-06T02:24:04;5.60;63.00
20288;DHT22;10303;51.960;8.372;2023-04-06T02:26:30;5.60;63.00
20288;DHT22;10303;51.960;8.372;2023-04-06T02:28:56;5.60;63.00
20288;DHT22;10303;51.960;8.372;2023-04-06T02:31:22;5.60;63.10
20288;DHT22;10303;51.960;8.372;2023-04-06T02:33:49;5.60;63.20
20288;DHT22;10303;51.960;8.372;2023-04-06T02:36:16;5.60;63.20
20288;DHT22;10303;51.960;8.372;2023-04-06T02:38:41;5.70;63.20
20288;DHT22;10303;51.960;8.372;2023-04-06T02:41:08;5.60;63.20
20288;DHT22;10303;51.960;8.372;2023-04-06T02:43:34;5.60;63.20
20288;DHT22;10303;51.960;8.372;2023-04-06T02:46:05;5.60;63.30
20288;DHT22;10303;51.960;8.372;2023-04-06T02:48:35;5.60;63.30
20288;DHT22;10303;51.960;8.372;2023-04-06T02:51:02;5.60;63.40
20288;DHT22;10303;51.960;8.372;2023-04-06T02:53:29;5.50;63.30
20288;DHT22;10303;51.960;8.372;2023-04-06T02:55:55;5.50;63.50
20288;DHT22;10303;51.960;8.372;2023-04-06T02:58:26;5.50;63.50
20288;DHT22;10303;51.960;8.372;2023-04-06T03:00:55;5.70;63.60
20288;DHT22;10303;51.960;8.372;2023-04-06T03:03:21;5.50;63.70
20288;DHT22;10303;51.960;8.372;2023-04-06T03:05:48;5.50;63.90
20288;DHT22;10303;51.960;8.372;2023-04-06T03:08:18;5.50;63.80
20288;DHT22;10303;51.960;8.372;2023-04-06T03:10:45;5.40;63.80
20288;DHT22;10303;51.960;8.372;2023-04-06T03:13:12;5.40;63.70
20288;DHT22;10303;51.960;8.372;2023-04-06T03:15:50;5.40;63.90
20288;DHT22;10303;51.960;8.372;2023-04-06T03:18:21;5.40;63.70
20288;DHT22;10303;51.960;8.372;2023-04-06T03:20:50;5.30;64.00
20288;DHT22;10303;51.960;8.372;2023-04-06T03:23:18;5.30;63.80
20288;DHT22;10303;51.960;8.372;2023-04-06T03:25:46;5.30;64.00
20288;DHT22;10303;51.960;8.372;2023-04-06T03:28:16;5.60;64.20
20288;DHT22;10303;51.960;8.372;2023-04-06T03:30:49;5.20;63.90
20288;DHT22;10303;51.960;8.372;2023-04-06T03:33:20;5.20;63.90
20288;DHT22;10303;51.960;8.372;2023-04-06T03:35:52;5.20;64.10
20288;DHT22;10303;51.960;8.372;2023-04-06T03:38:20;5.20;64.20
20288;DHT22;10303;51.960;8.372;2023-04-06T03:40:46;5.30;64.40
20288;DHT22;10303;51.960;8.372;2023-04-06T03:43:12;5.20;64.40
20288;DHT22;10303;51.960;8.372;2023-04-06T03:45:38;5.10;64.70
20288;DHT22;10303;51.960;8.372;2023-04-06T03:48:05;5.20;64.40
20288;DHT22;10303;51.960;8.372;2023-04-06T03:50:34;5.10;64.60
20288;DHT22;10303;51.960;8.372;2023-04-06T03:53:00;5.00;64.70
20288;DHT22;10303;51.960;8.372;2023-04-06T03:55:28;5.10;64.60
20288;DHT22;10303;51.960;8.372;2023-04-06T03:57:56;5.00;64.60
20288;DHT22;10303;51.960;8.372;2023-04-06T04:00:24;5.00;64.80
20288;DHT22;10303;51.960;8.372;2023-04-06T04:02:50;5.00;64.90
20288;DHT22;10303;51.960;8.372;2023-04-06T04:05:16;5.00;64.80
20288;DHT22;10303;51.960;8.372;2023-04-06T04:07:42;5.00;65.00
20288;DHT22;10303;51.960;8.372;2023-04-06T04:10:10;5.00;65.20
20288;DHT22;10303;51.960;8.372;2023-04-06T04:12:36;5.00;65.00
20288;DHT22;10303;51.960;8.372;2023-04-06T04:15:02;4.90;65.00
20288;DHT22;10303;51.960;8.372;2023-04-06T04:17:28;4.90;65.00
20288;DHT22;10303;51.960;8.372;2023-04-06T04:19:54;4.90;64.90
20288;DHT22;10303;51.960;8.372;2023-04-06T04:22:20;4.90;65.00
20288;DHT22;10303;51.960;8.372;2023-04-06T04:24:46;4.90;65.10
20288;DHT22;10303;51.960;8.372;2023-04-06T04:27:12;4.90;65.20
20288;DHT22;10303;51.960;8.372;2023-04-06T04:29:39;4.90;65.30
20288;DHT22;10303;51.960;8.372;2023-04-06T04:32:09;4.90;65.30
20288;DHT22;10303;51.960;8.372;2023-04-06T04:34:35;5.00;65.30
20288;DHT22;10303;51.960;8.372;2023-04-06T04:37:04;4.90;65.40
20288;DHT22;10303;51.960;8.372;2023-04-06T04:39:45;4.80;65.10
20288;DHT22;10303;51.960;8.372;2023-04-06T04:42:11;4.90;65.60
20288;DHT22;10303;51.960;8.372;2023-04-06T04:44:43;5.00;65.50
20288;DHT22;10303;51.960;8.372;2023-04-06T04:47:09;4.90;65.40
20288;DHT22;10303;51.960;8.372;2023-04-06T04:49:45;4.80;65.40
20288;DHT22;10303;51.960;8.372;2023-04-06T04:52:15;4.80;65.40
20288;DHT22;10303;51.960;8.372;2023-04-06T04:54:56;4.80;65.40
20288;DHT22;10303;51.960;8.372;2023-04-06T04:57:26;4.80;65.40
20288;DHT22;10303;51.960;8.372;2023-04-06T04:59:52;4.80;65.30
20288;DHT22;10303;51.960;8.372;2023-04-06T05:02:19;4.80;65.50
20288;DHT22;10303;51.960;8.372;2023-04-06T05:05:08;4.80;65.50
20288;DHT22;10303;51.960;8.372;2023-04-06T05:07:35;4.80;65.50
20288;DHT22;10303;51.960;8.372;2023-04-06T05:10:01;4.80;65.50
20288;DHT22;10303;51.960;8.372;2023-04-06T05:12:33;4.80;65.60
20288;DHT22;10303;51.960;8.372;2023-04-06T05:15:06;4.80;65.80
20288;DHT22;10303;51.960;8.372;2023-04-06T05:17:33;4.70;65.70
20288;DHT22;10303;51.960;8.372;2023-04-06T05:19:59;4.80;65.90
20288;DHT22;10303;51.960;8.372;2023-04-06T05:22:26;4.70;65.80
20288;DHT22;10303;51.960;8.372;2023-04-06T05:25:03;4.70;65.80
20288;DHT22;10303;51.960;8.372;2023-04-06T05:27:30;4.80;66.00
20288;DHT22;10303;51.960;8.372;2023-04-06T05:29:57;4.80;66.00
20288;DHT22;10303;51.960;8.372;2023-04-06T05:32:27;4.80;66.00
20288;DHT22;10303;51.960;8.372;2023-04-06T05:34:53;4.80;66.20
20288;DHT22;10303;51.960;8.372;2023-04-06T05:37:19;4.80;66.10
20288;DHT22;10303;51.960;8.372;2023-04-06T05:39:45;4.80;66.30
20288;DHT22;10303;51.960;8.372;2023-04-06T05:42:12;4.80;66.30
20288;DHT22;10303;51.960;8.372;2023-04-06T05:44:56;5.20;66.60
20288;DHT22;10303;51.960;8.372;2023-04-06T05:47:22;4.80;66.30
20288;DHT22;10303;51.960;8.372;2023-04-06T05:49:54;4.80;66.40
20288;DHT22;10303;51.960;8.372;2023-04-06T05:52:31;4.90;66.60
20288;DHT22;10303;51.960;8.372;2023-04-06T05:54:58;4.90;67.10
20288;DHT22;10303;51.960;8.372;2023-04-06T05:57:24;4.90;67.30
20288;DHT22;10303;51.960;8.372;2023-04-06T05:59:50;4.90;67.60
20288;DHT22;10303;51.960;8.372;2023-04-06T06:02:16;4.90;67.30
20288;DHT22;10303;51.960;8.372;2023-04-06T06:04:46;4.90;67.30
20288;DHT22;10303;51.960;8.372;2023-04-06T06:07:14;5.00;67.40
20288;DHT22;10303;51.960;8.372;2023-04-06T06:09:45;5.00;67.50
20288;DHT22;10303;51.960;8.372;2023-04-06T06:12:19;5.00;67.90
20288;DHT22;10303;51.960;8.372;2023-04-06T06:14:47;5.10;67.90
20288;DHT22;10303;51.960;8.372;2023-04-06T06:17:13;5.10;67.90
20288;DHT22;10303;51.960;8.372;2023-04-06T06:19:41;5.30;68.10
20288;DHT22;10303;51.960;8.372;2023-04-06T06:22:07;5.20;67.90
20288;DHT22;10303;51.960;8.372;2023-04-06T06:24:38;5.20;67.90
20288;DHT22;10303;51.960;8.372;2023-04-06T06:27:04;5.30;68.00
20288;DHT22;10303;51.960;8.372;2023-04-06T06:29:32;5.40;68.50
20288;DHT22;10303;51.960;8.372;2023-04-06T06:31:59;5.40;68.80
20288;DHT22;10303;51.960;8.372;2023-04-06T06:34:25;5.40;68.50
20288;DHT22;10303;51.960;8.372;2023-04-06T06:36:53;5.50;68.60
20288;DHT22;10303;51.960;8.372;2023-04-06T06:39:21;5.70;68.60
20288;DHT22;10303;51.960;8.372;2023-04-06T06:41:48;5.60;68.50
20288;DHT22;10303;51.960;8.372;2023-04-06T06:44:15;5.80;68.80
20288;DHT22;10303;51.960;8.372;2023-04-06T06:46:42;5.70;68.80
20288;DHT22;10303;51.960;8.372;2023-04-06T06:49:09;5.80;68.90
20288;DHT22;10303;51.960;8.372;2023-04-06T06:51:37;5.90;69.10
20288;DHT22;10303;51.960;8.372;2023-04-06T06:54:03;5.90;69.20
20288;DHT22;10303;51.960;8.372;2023-04-06T06:56:29;6.00;69.20
20288;DHT22;10303;51.960;8.372;2023-04-06T06:58:55;6.10;70.20
20288;DHT22;10303;51.960;8.372;2023-04-06T07:01:21;6.10;70.50
20288;DHT22;10303;51.960;8.372;2023-04-06T07:03:47;6.20;70.10
20288;DHT22;10303;51.960;8.372;2023-04-06T07:06:13;6.20;71.60
20288;DHT22;10303;51.960;8.372;2023-04-06T07:08:39;6.30;71.00
20288;DHT22;10303;51.960;8.372;2023-04-06T07:11:05;6.40;70.50
20288;DHT22;10303;51.960;8.372;2023-04-06T07:13:31;6.50;71.30
20288;DHT22;10303;51.960;8.372;2023-04-06T07:15:59;6.50;71.00
20288;DHT22;10303;51.960;8.372;2023-04-06T07:18:27;6.60;71.00
20288;DHT22;10303;51.960;8.372;2023-04-06T07:20:53;6.70;70.70
20288;DHT22;10303;51.960;8.372;2023-04-06T07:23:19;6.80;70.80
20288;DHT22;10303;51.960;8.372;2023-04-06T07:25:45;6.90;71.40
20288;DHT22;10303;51.960;8.372;2023-04-06T07:28:11;6.90;71.90
20288;DHT22;10303;51.960;8.372;2023-04-06T07:30:37;7.00;71.00
20288;DHT22;10303;51.960;8.372;2023-04-06T07:33:04;7.10;71.30
20288;DHT22;10303;51.960;8.372;2023-04-06T07:35:32;7.20;71.10
20288;DHT22;10303;51.960;8.372;2023-04-06T07:37:58;7.30;71.10
20288;DHT22;10303;51.960;8.372;2023-04-06T07:40:24;7.40;71.10
20288;DHT22;10303;51.960;8.372;2023-04-06T07:42:52;7.50;71.00
20288;DHT22;10303;51.960;8.372;2023-04-06T07:45:18;7.60;71.20
20288;DHT22;10303;51.960;8.372;2023-04-06T07:47:45;7.60;71.90
20288;DHT22;10303;51.960;8.372;2023-04-06T07:50:12;7.70;71.40
20288;DHT22;10303;51.960;8.372;2023-04-06T07:52:38;7.90;71.40
20288;DHT22;10303;51.960;8.372;2023-04-06T07:55:06;7.90;71.60
20288;DHT22;10303;51.960;8.372;2023-04-06T07:57:32;8.00;71.60
20288;DHT22;10303;51.960;8.372;2023-04-06T07:59:58;8.20;71.50
20288;DHT22;10303;51.960;8.372;2023-04-06T08:02:24;8.60;71.30
20288;DHT22;10303;51.960;8.372;2023-04-06T08:04:50;8.40;71.20
20288;DHT22;10303;51.960;8.372;2023-04-06T08:07:16;8.60;71.30
20288;DHT22;10303;51.960;8.372;2023-04-06T08:09:42;8.60;71.20
20288;DHT22;10303;51.960;8.372;2023-04-06T08:12:08;8.70;71.10
20288;DHT22;10303;51.960;8.372;2023-04-06T08:14:34;8.80;71.20
20288;DHT22;10303;51.960;8.372;2023-04-06T08:17:00;9.10;71.30
20288;DHT22;10303;51.960;8.372;2023-04-06T08:19:26;9.10;71.10
20288;DHT22;10303;51.960;8.372;2023-04-06T08:21:52;9.30;71.00
20288;DHT22;10303;51.960;8.372;2023-04-06T08:24:18;9.30;69.90
20288;DHT22;10303;51.960;8.372;2023-04-06T08:26:44;9.50;70.40
20288;DHT22;10303;51.960;8.372;2023-04-06T08:29:10;9.60;70.50
20288;DHT22;10303;51.960;8.372;2023-04-06T08:31:36;10.10;70.70
20288;DHT22;10303;51.960;8.372;2023-04-06T08:34:05;10.00;70.40
20288;DHT22;10303;51.960;8.372;2023-04-06T08:36:32;10.20;70.70
20288;DHT22;10303;51.960;8.372;2023-04-06T08:38:59;10.50;71.20
20288;DHT22;10303;51.960;8.372;2023-04-06T08:41:26;10.70;70.90
20288;DHT22;10303;51.960;8.372;2023-04-06T08:43:56;10.80;69.60
20288;DHT22;10303;51.960;8.372;2023-04-06T08:46:25;11.00;69.40
20288;DHT22;10303;51.960;8.372;2023-04-06T08:48:58;11.20;69.20
20288;DHT22;10303;51.960;8.372;2023-04-06T08:51:29;11.50;69.00
20288;DHT22;10303;51.960;8.372;2023-04-06T08:53:58;11.80;67.80
20288;DHT22;10303;51.960;8.372;2023-04-06T08:56:25;11.90;67.40
20288;DHT22;10303;51.960;8.372;2023-04-06T08:58:53;12.20;68.40
20288;DHT22;10303;51.960;8.372;2023-04-06T09:01:26;12.40;69.10
20288;DHT22;10303;51.960;8.372;2023-04-06T09:03:58;12.60;68.00
20288;DHT22;10303;51.960;8.372;2023-04-06T09:06:30;12.90;66.40
20288;DHT22;10303;51.960;8.372;2023-04-06T09:08:57;13.10;66.80
20288;DHT22;10303;51.960;8.372;2023-04-06T09:11:23;13.50;67.00
20288;DHT22;10303;51.960;8.372;2023-04-06T09:13:51;13.60;65.20
20288;DHT22;10303;51.960;8.372;2023-04-06T09:16:20;13.80;64.00
20288;DHT22;10303;51.960;8.372;2023-04-06T09:18:47;14.10;65.10
20288;DHT22;10303;51.960;8.372;2023-04-06T09:21:17;14.30;65.80
20288;DHT22;10303;51.960;8.372;2023-04-06T09:23:44;14.50;64.80
20288;DHT22;10303;51.960;8.372;2023-04-06T09:26:17;14.70;64.50
20288;DHT22;10303;51.960;8.372;2023-04-06T09:28:48;14.90;65.10
20288;DHT22;10303;51.960;8.372;2023-04-06T09:31:24;15.20;63.70
20288;DHT22;10303;51.960;8.372;2023-04-06T09:33:51;15.30;59.00
20288;DHT22;10303;51.960;8.372;2023-04-06T09:36:18;15.50;61.50
20288;DHT22;10303;51.960;8.372;2023-04-06T09:38:56;15.70;62.60
20288;DHT22;10303;51.960;8.372;2023-04-06T09:41:29;15.90;61.70
20288;DHT22;10303;51.960;8.372;2023-04-06T09:44:04;16.10;62.30
20288;DHT22;10303;51.960;8.372;2023-04-06T09:46:36;16.40;60.70
20288;DHT22;10303;51.960;8.372;2023-04-06T09:49:07;16.50;60.20
20288;DHT22;10303;51.960;8.372;2023-04-06T09:51:47;16.80;60.80
20288;DHT22;10303;51.960;8.372;2023-04-06T09:54:21;17.00;59.80
20288;DHT22;10303;51.960;8.372;2023-04-06T09:56:59;17.20;61.40
20288;DHT22;10303;51.960;8.372;2023-04-06T09:59:57;17.40;60.20
20288;DHT22;10303;51.960;8.372;2023-04-06T10:02:50;17.60;59.40
20288;DHT22;10303;51.960;8.372;2023-04-06T10:08:08;18.10;58.90
20288;DHT22;10303;51.960;8.372;2023-04-06T10:10:36;18.20;57.70
20288;DHT22;10303;51.960;8.372;2023-04-06T10:13:03;18.30;55.70
20288;DHT22;10303;51.960;8.372;2023-04-06T10:15:30;18.30;55.70
20288;DHT22;10303;51.960;8.372;2023-04-06T10:17:58;18.40;55.00
20288;DHT22;10303;51.960;8.372;2023-04-06T10:20:31;18.60;55.30
20288;DHT22;10303;51.960;8.372;2023-04-06T10:23:35;18.70;54.90
20288;DHT22;10303;51.960;8.372;2023-04-06T10:26:01;18.80;54.60
20288;DHT22;10303;51.960;8.372;2023-04-06T10:28:35;18.90;55.30
20288;DHT22;10303;51.960;8.372;2023-04-06T10:31:04;19.10;55.30
20288;DHT22;10303;51.960;8.372;2023-04-06T10:33:31;19.20;55.50
20288;DHT22;10303;51.960;8.372;2023-04-06T10:35:58;19.30;55.90
20288;DHT22;10303;51.960;8.372;2023-04-06T10:38:41;19.50;56.20
20288;DHT22;10303;51.960;8.372;2023-04-06T10:41:09;19.60;55.00
20288;DHT22;10303;51.960;8.372;2023-04-06T10:43:38;19.70;54.10
20288;DHT22;10303;51.960;8.372;2023-04-06T10:46:05;19.90;54.20
20288;DHT22;10303;51.960;8.372;2023-04-06T10:48:43;20.10;54.30
20288;DHT22;10303;51.960;8.372;2023-04-06T10:51:15;20.10;53.80
20288;DHT22;10303;51.960;8.372;2023-04-06T10:53:43;20.30;53.20
20288;DHT22;10303;51.960;8.372;2023-04-06T10:56:13;20.40;53.30
20288;DHT22;10303;51.960;8.372;2023-04-06T10:58:47;20.50;51.50
20288;DHT22;10303;51.960;8.372;2023-04-06T11:01:15;20.60;52.70
20288;DHT22;10303;51.960;8.372;2023-04-06T11:03:46;20.60;49.80
20288;DHT22;10303;51.960;8.372;2023-04-06T11:08:46;20.80;50.80
20288;DHT22;10303;51.960;8.372;2023-04-06T11:11:15;20.90;52.60
20288;DHT22;10303;51.960;8.372;2023-04-06T11:13:52;21.00;51.40
20288;DHT22;10303;51.960;8.372;2023-04-06T11:16:24;21.10;48.00
20288;DHT22;10303;51.960;8.372;2023-04-06T11:19:03;21.10;48.50
20288;DHT22;10303;51.960;8.372;2023-04-06T11:21:48;21.10;49.10
20288;DHT22;10303;51.960;8.372;2023-04-06T11:24:16;21.20;47.00
20288;DHT22;10303;51.960;8.372;2023-04-06T11:26:49;21.20;49.80
20288;DHT22;10303;51.960;8.372;2023-04-06T11:29:29;21.40;50.40
20288;DHT22;10303;51.960;8.372;2023-04-06T11:32:04;21.40;46.00
20288;DHT22;10303;51.960;8.372;2023-04-06T11:34:39;21.50;48.70
20288;DHT22;10303;51.960;8.372;2023-04-06T11:37:11;21.60;47.50
20288;DHT22;10303;51.960;8.372;2023-04-06T11:39:39;21.70;48.40
20288;DHT22;10303;51.960;8.372;2023-04-06T11:42:06;21.80;49.20
20288;DHT22;10303;51.960;8.372;2023-04-06T11:47:06;22.00;47.30
20288;DHT22;10303;51.960;8.372;2023-04-06T11:49:36;22.10;47.30
20288;DHT22;10303;51.960;8.372;2023-04-06T11:52:23;22.20;45.20
20288;DHT22;10303;51.960;8.372;2023-04-06T11:54:52;22.20;46.70
20288;DHT22;10303;51.960;8.372;2023-04-06T11:57:20;22.20;45.70
20288;DHT22;10303;51.960;8.372;2023-04-06T11:59:47;22.20;45.50
20288;DHT22;10303;51.960;8.372;2023-04-06T12:02:13;22.30;46.60
20288;DHT22;10303;51.960;8.372;2023-04-06T12:04:39;22.40;47.30
20288;DHT22;10303;51.960;8.372;2023-04-06T12:07:05;22.50;47.10
20288;DHT22;10303;51.960;8.372;2023-04-06T12:09:31;22.50;46.70
20288;DHT22;10303;51.960;8.372;2023-04-06T12:11:57;22.70;45.60
20288;DHT22;10303;51.960;8.372;2023-04-06T12:14:23;22.80;43.80
20288;DHT22;10303;51.960;8.372;2023-04-06T12:16:49;22.70;44.20
20288;DHT22;10303;51.960;8.372;2023-04-06T12:19:15;22.80;44.80
20288;DHT22;10303;51.960;8.372;2023-04-06T12:21:41;22.90;46.00
20288;DHT22;10303;51.960;8.372;2023-04-06T12:24:08;23.00;46.40
20288;DHT22;10303;51.960;8.372;2023-04-06T12:26:34;23.10;46.40
20288;DHT22;10303;51.960;8.372;2023-04-06T12:29:02;23.30;46.00
20288;DHT22;10303;51.960;8.372;2023-04-06T12:31:39;23.30;43.90
20288;DHT22;10303;51.960;8.372;2023-04-06T12:34:06;23.50;45.10
20288;DHT22;10303;51.960;8.372;2023-04-06T12:36:33;23.60;44.50
20288;DHT22;10303;51.960;8.372;2023-04-06T12:38:59;23.60;42.20
20288;DHT22;10303;51.960;8.372;2023-04-06T12:41:27;23.70;41.80
20288;DHT22;10303;51.960;8.372;2023-04-06T12:43:53;23.70;41.10
20288;DHT22;10303;51.960;8.372;2023-04-06T12:46:19;23.60;41.20
20288;DHT22;10303;51.960;8.372;2023-04-06T12:48:46;23.50;41.30
20288;DHT22;10303;51.960;8.372;2023-04-06T12:51:12;23.40;41.90
20288;DHT22;10303;51.960;8.372;2023-04-06T12:53:38;23.40;42.60
20288;DHT22;10303;51.960;8.372;2023-04-06T12:56:15;23.20;41.30
20288;DHT22;10303;51.960;8.372;2023-04-06T12:58:43;23.10;39.00
20288;DHT22;10303;51.960;8.372;2023-04-06T13:01:12;22.90;39.70
20288;DHT22;10303;51.960;8.372;2023-04-06T13:03:40;22.90;41.30
20288;DHT22;10303;51.960;8.372;2023-04-06T13:06:06;22.80;40.00
20288;DHT22;10303;51.960;8.372;2023-04-06T13:08:34;22.70;40.50
20288;DHT22;10303;51.960;8.372;2023-04-06T13:11:01;22.70;41.60
20288;DHT22;10303;51.960;8.372;2023-04-06T13:13:28;22.60;41.40
20288;DHT22;10303;51.960;8.372;2023-04-06T13:16:02;22.60;41.60
20288;DHT22;10303;51.960;8.372;2023-04-06T13:18:30;22.60;41.60
20288;DHT22;10303;51.960;8.372;2023-04-06T13:20:58;22.60;40.60
20288;DHT22;10303;51.960;8.372;2023-04-06T13:23:25;22.50;41.00
20288;DHT22;10303;51.960;8.372;2023-04-06T13:26:03;22.60;42.20
20288;DHT22;10303;51.960;8.372;2023-04-06T13:28:31;22.50;41.70
20288;DHT22;10303;51.960;8.372;2023-04-06T13:31:00;22.40;39.70
20288;DHT22;10303;51.960;8.372;2023-04-06T13:33:29;22.30;41.70
20288;DHT22;10303;51.960;8.372;2023-04-06T13:35:57;22.40;42.40
20288;DHT22;10303;51.960;8.372;2023-04-06T13:38:24;22.30;42.10
20288;DHT22;10303;51.960;8.372;2023-04-06T13:40:50;22.40;41.50
20288;DHT22;10303;51.960;8.372;2023-04-06T13:43:16;22.40;41.60
20288;DHT22;10303;51.960;8.372;2023-04-06T13:45:49;22.40;41.70
20288;DHT22;10303;51.960;8.372;2023-04-06T13:48:16;22.40;41.80
20288;DHT22;10303;51.960;8.372;2023-04-06T13:50:42;22.30;42.00
20288;DHT22;10303;51.960;8.372;2023-04-06T13:53:08;22.20;42.80
20288;DHT22;10303;51.960;8.372;2023-04-06T13:55:34;22.10;42.10
20288;DHT22;10303;51.960;8.372;2023-04-06T13:58:00;21.70;40.50
20288;DHT22;10303;51.960;8.372;2023-04-06T14:00:25;21.60;41.70
20288;DHT22;10303;51.960;8.372;2023-04-06T14:02:53;21.40;42.50
20288;DHT22;10303;51.960;8.372;2023-04-06T14:05:21;21.40;42.60
20288;DHT22;10303;51.960;8.372;2023-04-06T14:07:47;21.40;43.50
20288;DHT22;10303;51.960;8.372;2023-04-06T14:10:13;21.40;44.10
20288;DHT22;10303;51.960;8.372;2023-04-06T14:12:41;21.40;43.60
20288;DHT22;10303;51.960;8.372;2023-04-06T14:15:10;21.40;43.30
20288;DHT22;10303;51.960;8.372;2023-04-06T14:17:37;21.40;43.60
20288;DHT22;10303;51.960;8.372;2023-04-06T14:20:07;21.40;43.70
20288;DHT22;10303;51.960;8.372;2023-04-06T14:22:33;21.40;43.10
20288;DHT22;10303;51.960;8.372;2023-04-06T14:25:01;21.30;43.20
20288;DHT22;10303;51.960;8.372;2023-04-06T14:27:27;21.30;43.50
20288;DHT22;10303;51.960;8.372;2023-04-06T14:29:54;21.40;44.30
20288;DHT22;10303;51.960;8.372;2023-04-06T14:32:20;21.40;44.10
20288;DHT22;10303;51.960;8.372;2023-04-06T14:34:46;21.40;43.40
20288;DHT22;10303;51.960;8.372;2023-04-06T14:37:12;21.40;42.40
20288;DHT22;10303;51.960;8.372;2023-04-06T14:39:38;21.30;40.40
20288;DHT22;10303;51.960;8.372;2023-04-06T14:42:04;21.30;40.80
20288;DHT22;10303;51.960;8.372;2023-04-06T14:44:33;21.20;41.20
20288;DHT22;10303;51.960;8.372;2023-04-06T14:47:00;21.00;41.40
20288;DHT22;10303;51.960;8.372;2023-04-06T14:49:26;20.80;41.60
20288;DHT22;10303;51.960;8.372;2023-04-06T14:51:52;20.70;43.20
20288;DHT22;10303;51.960;8.372;2023-04-06T14:54:18;20.70;43.00
20288;DHT22;10303;51.960;8.372;2023-04-06T14:56:44;20.50;42.70
20288;DHT22;10303;51.960;8.372;2023-04-06T14:59:10;20.30;42.40
20288;DHT22;10303;51.960;8.372;2023-04-06T15:01:36;20.10;43.30
20288;DHT22;10303;51.960;8.372;2023-04-06T15:04:03;20.10;43.60
20288;DHT22;10303;51.960;8.372;2023-04-06T15:06:29;19.80;43.50
20288;DHT22;10303;51.960;8.372;2023-04-06T15:08:56;19.80;43.80
20288;DHT22;10303;51.960;8.372;2023-04-06T15:11:21;19.80;44.00
20288;DHT22;10303;51.960;8.372;2023-04-06T15:13:47;19.70;43.50
20288;DHT22;10303;51.960;8.372;2023-04-06T15:16:13;19.70;43.60
20288;DHT22;10303;51.960;8.372;2023-04-06T15:18:39;19.70;43.90
20288;DHT22;10303;51.960;8.372;2023-04-06T15:21:05;19.60;44.80
20288;DHT22;10303;51.960;8.372;2023-04-06T15:23:33;19.60;45.20
20288;DHT22;10303;51.960;8.372;2023-04-06T15:26:00;19.60;44.70
20288;DHT22;10303;51.960;8.372;2023-04-06T15:28:27;19.50;44.90
20288;DHT22;10303;51.960;8.372;2023-04-06T15:30:54;19.40;44.30
20288;DHT22;10303;51.960;8.372;2023-04-06T15:33:20;19.40;44.30
20288;DHT22;10303;51.960;8.372;2023-04-06T15:35:47;19.40;44.50
20288;DHT22;10303;51.960;8.372;2023-04-06T15:38:13;19.30;44.60
20288;DHT22;10303;51.960;8.372;2023-04-06T15:40:45;19.30;45.10
20288;DHT22;10303;51.960;8.372;2023-04-06T15:43:13;19.30;45.10
20288;DHT22;10303;51.960;8.372;2023-04-06T15:45:39;19.20;45.20
20288;DHT22;10303;51.960;8.372;2023-04-06T15:48:06;19.20;44.90
20288;DHT22;10303;51.960;8.372;2023-04-06T15:50:33;19.10;44.60
20288;DHT22;10303;51.960;8.372;2023-04-06T15:53:00;19.10;45.20
20288;DHT22;10303;51.960;8.372;2023-04-06T15:55:26;19.10;45.20
20288;DHT22;10303;51.960;8.372;2023-04-06T15:57:52;19.10;45.30